sensor_id;sensor_type;location;lat;lon;timestamp;P1;durP1;ratioP1;P2;durP2;ratioP2
13445;SDS011;6795;51.232;3.764;2022-12-18T00:00:06;177.83;;;64.50;;
13445;SDS011;6795;51.232;3.764;2022-12-18T00:02:35;162.70;;;64.03;;
13445;SDS011;6795;51.232;3.764;2022-12-18T00:05:04;162.70;;;60.73;;
13445;SDS011;6795;51.232;3.764;2022-12-18T00:07:35;142.87;;;55.23;;
13445;SDS011;6795;51.232;3.764;2022-12-18T00:10:03;144.47;;;58.50;;
13445;SDS011;6795;51.232;3.764;2022-12-18T00:12:33;146.23;;;57.50;;
13445;SDS011;6795;51.232;3.764;2022-12-18T00:15:01;150.33;;;54.53;;
13445;SDS011;6795;51.232;3.764;2022-12-18T00:17:31;158.77;;;58.57;;
13445;SDS011;6795;51.232;3.764;2022-12-18T00:19:59;144.00;;;56.20;;
13445;SDS011;6795;51.232;3.764;2022-12-18T00:22:27;150.90;;;54.73;;
13445;SDS011;6795;51.232;3.764;2022-12-18T00:24:57;148.17;;;52.70;;
13445;SDS011;6795;51.232;3.764;2022-12-18T00:27:25;117.07;;;48.13;;
13445;SDS011;6795;51.232;3.764;2022-12-18T00:29:54;124.67;;;50.33;;
13445;SDS011;6795;51.232;3.764;2022-12-18T00:32:22;130.93;;;49.20;;
13445;SDS011;6795;51.232;3.764;2022-12-18T00:34:51;133.53;;;50.27;;
13445;SDS011;6795;51.232;3.764;2022-12-18T00:37:19;157.33;;;53.87;;
13445;SDS011;6795;51.232;3.764;2022-12-18T00:39:47;144.13;;;54.73;;
13445;SDS011;6795;51.232;3.764;2022-12-18T00:42:18;149.17;;;53.03;;
13445;SDS011;6795;51.232;3.764;2022-12-18T00:45:04;142.50;;;53.33;;
13445;SDS011;6795;51.232;3.764;2022-12-18T00:47:38;146.37;;;51.40;;
13445;SDS011;6795;51.232;3.764;2022-12-18T00:50:07;144.13;;;50.70;;
13445;SDS011;6795;51.232;3.764;2022-12-18T00:52:37;152.60;;;53.73;;
13445;SDS011;6795;51.232;3.764;2022-12-18T00:55:05;139.07;;;46.80;;
13445;SDS011;6795;51.232;3.764;2022-12-18T00:57:35;144.43;;;51.03;;
13445;SDS011;6795;51.232;3.764;2022-12-18T01:00:07;141.53;;;50.33;;
13445;SDS011;6795;51.232;3.764;2022-12-18T01:02:37;124.93;;;44.80;;
13445;SDS011;6795;51.232;3.764;2022-12-18T01:05:06;141.50;;;53.17;;
13445;SDS011;6795;51.232;3.764;2022-12-18T01:07:35;129.03;;;46.90;;
13445;SDS011;6795;51.232;3.764;2022-12-18T01:10:04;144.13;;;49.50;;
13445;SDS011;6795;51.232;3.764;2022-12-18T01:12:33;137.57;;;50.97;;
13445;SDS011;6795;51.232;3.764;2022-12-18T01:15:04;140.30;;;48.97;;
13445;SDS011;6795;51.232;3.764;2022-12-18T01:17:34;144.17;;;50.97;;
13445;SDS011;6795;51.232;3.764;2022-12-18T01:20:02;140.17;;;48.97;;
13445;SDS011;6795;51.232;3.764;2022-12-18T01:22:32;142.97;;;49.97;;
13445;SDS011;6795;51.232;3.764;2022-12-18T01:25:00;141.77;;;45.90;;
13445;SDS011;6795;51.232;3.764;2022-12-18T01:27:30;143.03;;;46.77;;
13445;SDS011;6795;51.232;3.764;2022-12-18T01:29:59;136.07;;;51.90;;
13445;SDS011;6795;51.232;3.764;2022-12-18T01:32:29;138.87;;;50.63;;
13445;SDS011;6795;51.232;3.764;2022-12-18T01:34:58;132.07;;;48.17;;
13445;SDS011;6795;51.232;3.764;2022-12-18T01:37:26;167.10;;;57.10;;
13445;SDS011;6795;51.232;3.764;2022-12-18T01:39:54;124.07;;;47.57;;
13445;SDS011;6795;51.232;3.764;2022-12-18T01:42:23;135.70;;;47.40;;
13445;SDS011;6795;51.232;3.764;2022-12-18T01:47:54;142.60;;;46.87;;
13445;SDS011;6795;51.232;3.764;2022-12-18T01:50:27;136.70;;;47.40;;
13445;SDS011;6795;51.232;3.764;2022-12-18T01:53:00;144.50;;;51.17;;
13445;SDS011;6795;51.232;3.764;2022-12-18T01:55:35;139.37;;;47.60;;
13445;SDS011;6795;51.232;3.764;2022-12-18T01:58:06;135.33;;;46.00;;
13445;SDS011;6795;51.232;3.764;2022-12-18T02:00:36;135.80;;;47.43;;
13445;SDS011;6795;51.232;3.764;2022-12-18T02:03:04;143.80;;;47.53;;
13445;SDS011;6795;51.232;3.764;2022-12-18T02:05:38;135.13;;;46.13;;
13445;SDS011;6795;51.232;3.764;2022-12-18T02:08:13;140.77;;;47.77;;
13445;SDS011;6795;51.232;3.764;2022-12-18T02:10:46;120.47;;;43.27;;
13445;SDS011;6795;51.232;3.764;2022-12-18T02:13:23;145.30;;;44.77;;
13445;SDS011;6795;51.232;3.764;2022-12-18T02:16:01;137.27;;;47.87;;
13445;SDS011;6795;51.232;3.764;2022-12-18T02:18:37;114.00;;;40.50;;
13445;SDS011;6795;51.232;3.764;2022-12-18T02:21:11;151.40;;;49.13;;
13445;SDS011;6795;51.232;3.764;2022-12-18T02:23:50;129.13;;;47.10;;
13445;SDS011;6795;51.232;3.764;2022-12-18T02:26:28;132.67;;;48.37;;
13445;SDS011;6795;51.232;3.764;2022-12-18T02:29:03;137.63;;;47.90;;
13445;SDS011;6795;51.232;3.764;2022-12-18T02:31:36;124.47;;;45.03;;
13445;SDS011;6795;51.232;3.764;2022-12-18T02:34:08;121.90;;;45.03;;
13445;SDS011;6795;51.232;3.764;2022-12-18T02:36:39;121.83;;;42.27;;
13445;SDS011;6795;51.232;3.764;2022-12-18T02:39:11;125.90;;;44.33;;
13445;SDS011;6795;51.232;3.764;2022-12-18T02:41:42;123.23;;;42.43;;
13445;SDS011;6795;51.232;3.764;2022-12-18T02:44:12;132.43;;;46.07;;
13445;SDS011;6795;51.232;3.764;2022-12-18T02:46:42;127.20;;;45.00;;
13445;SDS011;6795;51.232;3.764;2022-12-18T02:49:17;141.20;;;46.70;;
13445;SDS011;6795;51.232;3.764;2022-12-18T02:51:53;126.00;;;42.27;;
13445;SDS011;6795;51.232;3.764;2022-12-18T02:54:27;129.90;;;44.13;;
13445;SDS011;6795;51.232;3.764;2022-12-18T02:57:08;120.37;;;40.97;;
13445;SDS011;6795;51.232;3.764;2022-12-18T02:59:45;108.23;;;41.03;;
13445;SDS011;6795;51.232;3.764;2022-12-18T03:02:21;117.27;;;41.20;;
13445;SDS011;6795;51.232;3.764;2022-12-18T03:04:55;120.03;;;41.67;;
13445;SDS011;6795;51.232;3.764;2022-12-18T03:07:33;122.23;;;45.47;;
13445;SDS011;6795;51.232;3.764;2022-12-18T03:10:05;124.17;;;46.03;;
13445;SDS011;6795;51.232;3.764;2022-12-18T03:12:38;122.90;;;43.97;;
13445;SDS011;6795;51.232;3.764;2022-12-18T03:15:12;128.63;;;46.60;;
13445;SDS011;6795;51.232;3.764;2022-12-18T03:17:46;120.87;;;43.40;;
13445;SDS011;6795;51.232;3.764;2022-12-18T03:20:21;126.70;;;46.63;;
13445;SDS011;6795;51.232;3.764;2022-12-18T03:22:53;116.93;;;42.07;;
13445;SDS011;6795;51.232;3.764;2022-12-18T03:25:25;126.13;;;45.47;;
13445;SDS011;6795;51.232;3.764;2022-12-18T03:27:58;128.73;;;42.43;;
13445;SDS011;6795;51.232;3.764;2022-12-18T03:30:28;110.43;;;41.63;;
13445;SDS011;6795;51.232;3.764;2022-12-18T03:32:58;119.67;;;42.23;;
13445;SDS011;6795;51.232;3.764;2022-12-18T03:35:34;111.27;;;42.30;;
13445;SDS011;6795;51.232;3.764;2022-12-18T03:38:07;111.73;;;39.40;;
13445;SDS011;6795;51.232;3.764;2022-12-18T03:40:40;122.47;;;42.23;;
13445;SDS011;6795;51.232;3.764;2022-12-18T03:43:20;121.07;;;43.87;;
13445;SDS011;6795;51.232;3.764;2022-12-18T03:45:59;114.73;;;43.23;;
13445;SDS011;6795;51.232;3.764;2022-12-18T03:48:33;123.97;;;43.17;;
13445;SDS011;6795;51.232;3.764;2022-12-18T03:51:09;117.67;;;40.40;;
13445;SDS011;6795;51.232;3.764;2022-12-18T03:53:41;111.50;;;39.77;;
13445;SDS011;6795;51.232;3.764;2022-12-18T03:56:16;114.80;;;42.17;;
13445;SDS011;6795;51.232;3.764;2022-12-18T03:58:47;106.90;;;38.63;;
13445;SDS011;6795;51.232;3.764;2022-12-18T04:01:18;111.37;;;39.17;;
13445;SDS011;6795;51.232;3.764;2022-12-18T04:03:50;100.80;;;38.70;;
13445;SDS011;6795;51.232;3.764;2022-12-18T04:06:20;90.77;;;32.37;;
13445;SDS011;6795;51.232;3.764;2022-12-18T04:08:49;105.10;;;38.13;;
13445;SDS011;6795;51.232;3.764;2022-12-18T04:11:17;102.03;;;37.73;;
13445;SDS011;6795;51.232;3.764;2022-12-18T04:13:47;94.47;;;36.93;;
13445;SDS011;6795;51.232;3.764;2022-12-18T04:16:15;102.30;;;37.10;;
13445;SDS011;6795;51.232;3.764;2022-12-18T04:18:44;105.40;;;38.40;;
13445;SDS011;6795;51.232;3.764;2022-12-18T04:21:13;115.20;;;39.37;;
13445;SDS011;6795;51.232;3.764;2022-12-18T04:23:41;95.83;;;36.33;;
13445;SDS011;6795;51.232;3.764;2022-12-18T04:26:09;94.37;;;37.83;;
13445;SDS011;6795;51.232;3.764;2022-12-18T04:28:38;96.43;;;35.77;;
13445;SDS011;6795;51.232;3.764;2022-12-18T04:31:08;104.70;;;39.23;;
13445;SDS011;6795;51.232;3.764;2022-12-18T04:33:36;92.87;;;38.03;;
13445;SDS011;6795;51.232;3.764;2022-12-18T04:36:06;108.17;;;38.87;;
13445;SDS011;6795;51.232;3.764;2022-12-18T04:38:35;102.80;;;37.50;;
13445;SDS011;6795;51.232;3.764;2022-12-18T04:41:03;102.23;;;37.37;;
13445;SDS011;6795;51.232;3.764;2022-12-18T04:43:32;99.63;;;35.70;;
13445;SDS011;6795;51.232;3.764;2022-12-18T04:46:03;103.70;;;37.67;;
13445;SDS011;6795;51.232;3.764;2022-12-18T04:48:35;96.93;;;36.80;;
13445;SDS011;6795;51.232;3.764;2022-12-18T04:51:04;111.47;;;39.53;;
13445;SDS011;6795;51.232;3.764;2022-12-18T04:53:32;89.50;;;35.83;;
13445;SDS011;6795;51.232;3.764;2022-12-18T04:56:02;103.53;;;34.77;;
13445;SDS011;6795;51.232;3.764;2022-12-18T04:58:32;102.33;;;38.10;;
13445;SDS011;6795;51.232;3.764;2022-12-18T05:01:00;86.03;;;32.97;;
13445;SDS011;6795;51.232;3.764;2022-12-18T05:03:29;104.93;;;37.47;;
13445;SDS011;6795;51.232;3.764;2022-12-18T05:05:59;103.47;;;37.47;;
13445;SDS011;6795;51.232;3.764;2022-12-18T05:08:27;102.40;;;34.60;;
13445;SDS011;6795;51.232;3.764;2022-12-18T05:10:59;95.57;;;36.33;;
13445;SDS011;6795;51.232;3.764;2022-12-18T05:13:28;96.57;;;34.70;;
13445;SDS011;6795;51.232;3.764;2022-12-18T05:15:56;89.97;;;34.53;;
13445;SDS011;6795;51.232;3.764;2022-12-18T05:18:25;90.23;;;35.20;;
13445;SDS011;6795;51.232;3.764;2022-12-18T05:20:54;103.70;;;36.77;;
13445;SDS011;6795;51.232;3.764;2022-12-18T05:23:24;92.80;;;33.53;;
13445;SDS011;6795;51.232;3.764;2022-12-18T05:25:53;92.63;;;35.47;;
13445;SDS011;6795;51.232;3.764;2022-12-18T05:28:22;93.23;;;36.07;;
13445;SDS011;6795;51.232;3.764;2022-12-18T05:30:52;88.57;;;32.17;;
13445;SDS011;6795;51.232;3.764;2022-12-18T05:33:23;96.73;;;33.23;;
13445;SDS011;6795;51.232;3.764;2022-12-18T05:35:53;86.90;;;33.03;;
13445;SDS011;6795;51.232;3.764;2022-12-18T05:38:22;76.67;;;31.07;;
13445;SDS011;6795;51.232;3.764;2022-12-18T05:40:53;85.50;;;31.30;;
13445;SDS011;6795;51.232;3.764;2022-12-18T05:43:23;81.70;;;31.77;;
13445;SDS011;6795;51.232;3.764;2022-12-18T05:45:52;83.33;;;33.03;;
13445;SDS011;6795;51.232;3.764;2022-12-18T05:48:20;78.53;;;31.70;;
13445;SDS011;6795;51.232;3.764;2022-12-18T05:50:50;89.03;;;32.07;;
13445;SDS011;6795;51.232;3.764;2022-12-18T05:53:19;87.10;;;31.67;;
13445;SDS011;6795;51.232;3.764;2022-12-18T05:55:49;79.63;;;30.50;;
13445;SDS011;6795;51.232;3.764;2022-12-18T05:58:18;71.87;;;32.13;;
13445;SDS011;6795;51.232;3.764;2022-12-18T06:00:46;80.57;;;32.00;;
13445;SDS011;6795;51.232;3.764;2022-12-18T06:03:14;79.47;;;30.37;;
13445;SDS011;6795;51.232;3.764;2022-12-18T06:05:44;75.53;;;28.47;;
13445;SDS011;6795;51.232;3.764;2022-12-18T06:08:13;69.83;;;26.43;;
13445;SDS011;6795;51.232;3.764;2022-12-18T06:10:41;84.07;;;31.33;;
13445;SDS011;6795;51.232;3.764;2022-12-18T06:13:19;71.00;;;27.77;;
13445;SDS011;6795;51.232;3.764;2022-12-18T06:15:47;78.37;;;31.77;;
13445;SDS011;6795;51.232;3.764;2022-12-18T06:18:15;72.20;;;29.80;;
13445;SDS011;6795;51.232;3.764;2022-12-18T06:20:44;68.63;;;29.13;;
13445;SDS011;6795;51.232;3.764;2022-12-18T06:23:12;69.67;;;29.97;;
13445;SDS011;6795;51.232;3.764;2022-12-18T06:25:40;67.37;;;29.27;;
13445;SDS011;6795;51.232;3.764;2022-12-18T06:28:09;72.27;;;29.57;;
13445;SDS011;6795;51.232;3.764;2022-12-18T06:30:39;69.83;;;27.40;;
13445;SDS011;6795;51.232;3.764;2022-12-18T06:33:07;63.73;;;26.47;;
13445;SDS011;6795;51.232;3.764;2022-12-18T06:35:35;59.53;;;26.30;;
13445;SDS011;6795;51.232;3.764;2022-12-18T06:38:04;62.00;;;27.27;;
13445;SDS011;6795;51.232;3.764;2022-12-18T06:40:32;58.13;;;25.53;;
13445;SDS011;6795;51.232;3.764;2022-12-18T06:43:01;67.30;;;25.30;;
13445;SDS011;6795;51.232;3.764;2022-12-18T06:45:30;59.67;;;25.20;;
13445;SDS011;6795;51.232;3.764;2022-12-18T06:48:00;56.57;;;23.73;;
13445;SDS011;6795;51.232;3.764;2022-12-18T06:50:29;52.67;;;24.03;;
13445;SDS011;6795;51.232;3.764;2022-12-18T06:52:57;57.80;;;23.43;;
13445;SDS011;6795;51.232;3.764;2022-12-18T06:55:25;71.43;;;28.33;;
13445;SDS011;6795;51.232;3.764;2022-12-18T06:57:54;57.97;;;23.87;;
13445;SDS011;6795;51.232;3.764;2022-12-18T07:00:22;64.23;;;26.33;;
13445;SDS011;6795;51.232;3.764;2022-12-18T07:02:50;52.37;;;24.83;;
13445;SDS011;6795;51.232;3.764;2022-12-18T07:05:20;61.90;;;28.07;;
13445;SDS011;6795;51.232;3.764;2022-12-18T07:07:49;55.20;;;25.53;;
13445;SDS011;6795;51.232;3.764;2022-12-18T07:10:17;56.93;;;26.03;;
13445;SDS011;6795;51.232;3.764;2022-12-18T07:12:46;52.27;;;25.90;;
13445;SDS011;6795;51.232;3.764;2022-12-18T07:15:14;45.33;;;22.73;;
13445;SDS011;6795;51.232;3.764;2022-12-18T07:17:42;39.00;;;18.93;;
13445;SDS011;6795;51.232;3.764;2022-12-18T07:20:11;52.00;;;23.13;;
13445;SDS011;6795;51.232;3.764;2022-12-18T07:22:41;52.57;;;23.03;;
13445;SDS011;6795;51.232;3.764;2022-12-18T07:25:09;45.30;;;19.20;;
13445;SDS011;6795;51.232;3.764;2022-12-18T07:27:37;37.13;;;18.47;;
13445;SDS011;6795;51.232;3.764;2022-12-18T07:30:07;32.63;;;14.27;;
13445;SDS011;6795;51.232;3.764;2022-12-18T07:32:36;44.17;;;21.10;;
13445;SDS011;6795;51.232;3.764;2022-12-18T07:35:05;29.40;;;16.33;;
13445;SDS011;6795;51.232;3.764;2022-12-18T07:37:33;39.03;;;18.63;;
13445;SDS011;6795;51.232;3.764;2022-12-18T07:40:03;31.07;;;16.60;;
13445;SDS011;6795;51.232;3.764;2022-12-18T07:42:33;36.43;;;18.30;;
13445;SDS011;6795;51.232;3.764;2022-12-18T07:45:02;34.37;;;16.77;;
13445;SDS011;6795;51.232;3.764;2022-12-18T07:47:33;31.33;;;16.73;;
13445;SDS011;6795;51.232;3.764;2022-12-18T07:50:03;26.67;;;15.30;;
13445;SDS011;6795;51.232;3.764;2022-12-18T07:52:32;28.33;;;14.27;;
13445;SDS011;6795;51.232;3.764;2022-12-18T07:55:00;29.77;;;15.13;;
13445;SDS011;6795;51.232;3.764;2022-12-18T07:57:32;29.47;;;15.73;;
13445;SDS011;6795;51.232;3.764;2022-12-18T08:00:21;27.30;;;14.67;;
13445;SDS011;6795;51.232;3.764;2022-12-18T08:02:49;26.70;;;15.43;;
13445;SDS011;6795;51.232;3.764;2022-12-18T08:05:18;35.07;;;17.23;;
13445;SDS011;6795;51.232;3.764;2022-12-18T08:07:47;33.43;;;19.17;;
13445;SDS011;6795;51.232;3.764;2022-12-18T08:10:17;32.97;;;17.03;;
13445;SDS011;6795;51.232;3.764;2022-12-18T08:12:48;38.10;;;17.30;;
13445;SDS011;6795;51.232;3.764;2022-12-18T08:15:17;32.13;;;15.73;;
13445;SDS011;6795;51.232;3.764;2022-12-18T08:17:45;28.47;;;15.23;;
13445;SDS011;6795;51.232;3.764;2022-12-18T08:20:14;29.60;;;16.03;;
13445;SDS011;6795;51.232;3.764;2022-12-18T08:22:44;25.20;;;13.70;;
13445;SDS011;6795;51.232;3.764;2022-12-18T08:25:12;30.10;;;16.37;;
13445;SDS011;6795;51.232;3.764;2022-12-18T08:27:42;30.70;;;16.57;;
13445;SDS011;6795;51.232;3.764;2022-12-18T08:30:11;27.60;;;15.77;;
13445;SDS011;6795;51.232;3.764;2022-12-18T08:32:40;27.70;;;15.00;;
13445;SDS011;6795;51.232;3.764;2022-12-18T08:35:08;30.33;;;16.33;;
13445;SDS011;6795;51.232;3.764;2022-12-18T08:37:38;29.83;;;17.07;;
13445;SDS011;6795;51.232;3.764;2022-12-18T08:40:08;32.30;;;17.17;;
13445;SDS011;6795;51.232;3.764;2022-12-18T08:42:37;26.33;;;15.00;;
13445;SDS011;6795;51.232;3.764;2022-12-18T08:45:24;29.80;;;16.97;;
13445;SDS011;6795;51.232;3.764;2022-12-18T08:47:52;28.63;;;16.50;;
13445;SDS011;6795;51.232;3.764;2022-12-18T08:50:21;25.97;;;16.27;;
13445;SDS011;6795;51.232;3.764;2022-12-18T08:52:50;28.10;;;15.50;;
13445;SDS011;6795;51.232;3.764;2022-12-18T08:55:18;27.97;;;17.33;;
13445;SDS011;6795;51.232;3.764;2022-12-18T08:57:48;29.70;;;17.83;;
13445;SDS011;6795;51.232;3.764;2022-12-18T09:00:16;30.37;;;18.43;;
13445;SDS011;6795;51.232;3.764;2022-12-18T09:02:47;29.37;;;17.23;;
13445;SDS011;6795;51.232;3.764;2022-12-18T09:05:15;33.03;;;19.20;;
13445;SDS011;6795;51.232;3.764;2022-12-18T09:07:44;27.77;;;18.57;;
13445;SDS011;6795;51.232;3.764;2022-12-18T09:10:12;31.07;;;19.30;;
13445;SDS011;6795;51.232;3.764;2022-12-18T09:12:41;30.07;;;19.37;;
13445;SDS011;6795;51.232;3.764;2022-12-18T09:15:09;29.17;;;17.23;;
13445;SDS011;6795;51.232;3.764;2022-12-18T09:17:38;28.43;;;17.37;;
13445;SDS011;6795;51.232;3.764;2022-12-18T09:20:08;27.97;;;18.23;;
13445;SDS011;6795;51.232;3.764;2022-12-18T09:22:37;28.97;;;16.73;;
13445;SDS011;6795;51.232;3.764;2022-12-18T09:25:06;26.80;;;18.60;;
13445;SDS011;6795;51.232;3.764;2022-12-18T09:27:34;32.63;;;19.43;;
13445;SDS011;6795;51.232;3.764;2022-12-18T09:30:04;27.40;;;18.97;;
13445;SDS011;6795;51.232;3.764;2022-12-18T09:32:34;27.63;;;17.90;;
13445;SDS011;6795;51.232;3.764;2022-12-18T09:35:02;29.73;;;19.70;;
13445;SDS011;6795;51.232;3.764;2022-12-18T09:37:32;30.40;;;17.33;;
13445;SDS011;6795;51.232;3.764;2022-12-18T09:40:01;28.97;;;18.07;;
13445;SDS011;6795;51.232;3.764;2022-12-18T09:42:29;26.37;;;18.10;;
13445;SDS011;6795;51.232;3.764;2022-12-18T09:44:58;26.93;;;17.40;;
13445;SDS011;6795;51.232;3.764;2022-12-18T09:47:28;27.27;;;17.00;;
13445;SDS011;6795;51.232;3.764;2022-12-18T09:50:04;26.17;;;16.70;;
13445;SDS011;6795;51.232;3.764;2022-12-18T09:52:52;25.13;;;16.97;;
13445;SDS011;6795;51.232;3.764;2022-12-18T09:55:27;27.30;;;16.50;;
13445;SDS011;6795;51.232;3.764;2022-12-18T09:58:04;24.97;;;15.33;;
13445;SDS011;6795;51.232;3.764;2022-12-18T10:00:39;23.10;;;16.03;;
13445;SDS011;6795;51.232;3.764;2022-12-18T10:03:09;24.67;;;15.67;;
13445;SDS011;6795;51.232;3.764;2022-12-18T10:05:42;23.03;;;15.07;;
13445;SDS011;6795;51.232;3.764;2022-12-18T10:08:19;23.70;;;16.13;;
13445;SDS011;6795;51.232;3.764;2022-12-18T10:10:53;22.20;;;15.33;;
13445;SDS011;6795;51.232;3.764;2022-12-18T10:13:29;25.07;;;15.00;;
13445;SDS011;6795;51.232;3.764;2022-12-18T10:16:08;23.77;;;15.47;;
13445;SDS011;6795;51.232;3.764;2022-12-18T10:18:50;22.57;;;13.87;;
13445;SDS011;6795;51.232;3.764;2022-12-18T10:21:30;20.87;;;15.03;;
13445;SDS011;6795;51.232;3.764;2022-12-18T10:24:12;26.60;;;15.83;;
13445;SDS011;6795;51.232;3.764;2022-12-18T10:26:45;21.63;;;15.43;;
13445;SDS011;6795;51.232;3.764;2022-12-18T10:29:15;23.20;;;14.13;;
13445;SDS011;6795;51.232;3.764;2022-12-18T10:31:45;21.43;;;14.43;;
13445;SDS011;6795;51.232;3.764;2022-12-18T10:34:14;22.40;;;15.10;;
13445;SDS011;6795;51.232;3.764;2022-12-18T10:36:42;22.33;;;14.93;;
13445;SDS011;6795;51.232;3.764;2022-12-18T10:39:19;20.70;;;14.63;;
13445;SDS011;6795;51.232;3.764;2022-12-18T10:41:49;21.03;;;14.00;;
13445;SDS011;6795;51.232;3.764;2022-12-18T10:44:19;20.10;;;13.47;;
13445;SDS011;6795;51.232;3.764;2022-12-18T10:46:49;24.30;;;15.17;;
13445;SDS011;6795;51.232;3.764;2022-12-18T10:49:23;20.10;;;14.43;;
13445;SDS011;6795;51.232;3.764;2022-12-18T10:52:04;18.63;;;13.20;;
13445;SDS011;6795;51.232;3.764;2022-12-18T10:54:36;20.10;;;13.37;;
13445;SDS011;6795;51.232;3.764;2022-12-18T10:57:16;20.43;;;14.43;;
13445;SDS011;6795;51.232;3.764;2022-12-18T10:59:56;20.17;;;13.93;;
13445;SDS011;6795;51.232;3.764;2022-12-18T11:02:26;19.90;;;14.50;;
13445;SDS011;6795;51.232;3.764;2022-12-18T11:05:01;20.77;;;14.70;;
13445;SDS011;6795;51.232;3.764;2022-12-18T11:07:46;19.33;;;15.73;;
13445;SDS011;6795;51.232;3.764;2022-12-18T11:10:19;19.00;;;14.23;;
13445;SDS011;6795;51.232;3.764;2022-12-18T11:12:48;17.20;;;14.50;;
13445;SDS011;6795;51.232;3.764;2022-12-18T11:15:18;19.10;;;14.37;;
13445;SDS011;6795;51.232;3.764;2022-12-18T11:17:48;20.60;;;14.43;;
13445;SDS011;6795;51.232;3.764;2022-12-18T11:20:20;21.53;;;14.70;;
13445;SDS011;6795;51.232;3.764;2022-12-18T11:22:55;17.97;;;14.57;;
13445;SDS011;6795;51.232;3.764;2022-12-18T11:25:26;22.43;;;15.70;;
13445;SDS011;6795;51.232;3.764;2022-12-18T11:28:00;20.27;;;15.80;;
13445;SDS011;6795;51.232;3.764;2022-12-18T11:30:30;22.27;;;16.43;;
13445;SDS011;6795;51.232;3.764;2022-12-18T11:33:01;25.43;;;17.63;;
13445;SDS011;6795;51.232;3.764;2022-12-18T11:35:35;25.27;;;16.80;;
13445;SDS011;6795;51.232;3.764;2022-12-18T11:38:12;23.70;;;17.23;;
13445;SDS011;6795;51.232;3.764;2022-12-18T11:40:51;25.10;;;17.97;;
13445;SDS011;6795;51.232;3.764;2022-12-18T11:43:26;26.97;;;18.13;;
13445;SDS011;6795;51.232;3.764;2022-12-18T11:45:59;26.33;;;18.87;;
13445;SDS011;6795;51.232;3.764;2022-12-18T11:48:32;27.70;;;20.53;;
13445;SDS011;6795;51.232;3.764;2022-12-18T11:51:08;25.20;;;18.57;;
13445;SDS011;6795;51.232;3.764;2022-12-18T11:53:42;23.60;;;18.00;;
13445;SDS011;6795;51.232;3.764;2022-12-18T11:56:17;23.50;;;16.80;;
13445;SDS011;6795;51.232;3.764;2022-12-18T11:58:57;25.50;;;17.90;;
13445;SDS011;6795;51.232;3.764;2022-12-18T12:01:34;22.77;;;16.97;;
13445;SDS011;6795;51.232;3.764;2022-12-18T12:07:10;25.60;;;17.80;;
13445;SDS011;6795;51.232;3.764;2022-12-18T12:09:58;26.23;;;18.20;;
13445;SDS011;6795;51.232;3.764;2022-12-18T12:12:37;27.33;;;20.10;;
13445;SDS011;6795;51.232;3.764;2022-12-18T12:15:18;29.13;;;20.33;;
13445;SDS011;6795;51.232;3.764;2022-12-18T12:17:59;28.77;;;22.07;;
13445;SDS011;6795;51.232;3.764;2022-12-18T12:20:39;29.53;;;21.23;;
13445;SDS011;6795;51.232;3.764;2022-12-18T12:23:17;34.90;;;24.23;;
13445;SDS011;6795;51.232;3.764;2022-12-18T12:26:06;33.80;;;23.03;;
13445;SDS011;6795;51.232;3.764;2022-12-18T12:28:43;33.47;;;22.00;;
13445;SDS011;6795;51.232;3.764;2022-12-18T12:31:25;30.77;;;22.47;;
13445;SDS011;6795;51.232;3.764;2022-12-18T12:34:08;33.73;;;24.00;;
13445;SDS011;6795;51.232;3.764;2022-12-18T12:36:47;36.43;;;25.80;;
13445;SDS011;6795;51.232;3.764;2022-12-18T12:39:27;36.73;;;26.57;;
13445;SDS011;6795;51.232;3.764;2022-12-18T12:41:59;39.27;;;26.20;;
13445;SDS011;6795;51.232;3.764;2022-12-18T12:44:47;39.87;;;26.73;;
13445;SDS011;6795;51.232;3.764;2022-12-18T12:47:39;40.80;;;27.03;;
13445;SDS011;6795;51.232;3.764;2022-12-18T12:50:12;35.47;;;24.53;;
13445;SDS011;6795;51.232;3.764;2022-12-18T12:52:45;35.10;;;24.07;;
13445;SDS011;6795;51.232;3.764;2022-12-18T12:55:17;38.00;;;26.30;;
13445;SDS011;6795;51.232;3.764;2022-12-18T12:57:53;39.47;;;26.93;;
13445;SDS011;6795;51.232;3.764;2022-12-18T13:00:26;36.73;;;25.03;;
13445;SDS011;6795;51.232;3.764;2022-12-18T13:03:07;36.43;;;28.43;;
13445;SDS011;6795;51.232;3.764;2022-12-18T13:05:40;41.47;;;28.43;;
13445;SDS011;6795;51.232;3.764;2022-12-18T13:08:22;45.17;;;31.43;;
13445;SDS011;6795;51.232;3.764;2022-12-18T13:10:54;40.93;;;29.97;;
13445;SDS011;6795;51.232;3.764;2022-12-18T13:13:56;41.23;;;24.50;;
13445;SDS011;6795;51.232;3.764;2022-12-18T13:16:25;36.03;;;22.97;;
13445;SDS011;6795;51.232;3.764;2022-12-18T13:18:55;30.30;;;19.73;;
13445;SDS011;6795;51.232;3.764;2022-12-18T13:21:25;26.70;;;18.57;;
13445;SDS011;6795;51.232;3.764;2022-12-18T13:23:56;25.20;;;17.43;;
13445;SDS011;6795;51.232;3.764;2022-12-18T13:26:43;24.67;;;16.47;;
13445;SDS011;6795;51.232;3.764;2022-12-18T13:29:12;27.40;;;17.77;;
13445;SDS011;6795;51.232;3.764;2022-12-18T13:32:21;24.90;;;18.30;;
13445;SDS011;6795;51.232;3.764;2022-12-18T13:37:53;25.43;;;18.00;;
13445;SDS011;6795;51.232;3.764;2022-12-18T13:43:40;23.77;;;17.30;;
13445;SDS011;6795;51.232;3.764;2022-12-18T13:46:19;25.70;;;17.63;;
13445;SDS011;6795;51.232;3.764;2022-12-18T13:48:51;26.47;;;18.57;;
13445;SDS011;6795;51.232;3.764;2022-12-18T13:51:25;26.70;;;18.57;;
13445;SDS011;6795;51.232;3.764;2022-12-18T13:53:55;25.80;;;19.20;;
13445;SDS011;6795;51.232;3.764;2022-12-18T13:56:27;28.03;;;20.30;;
13445;SDS011;6795;51.232;3.764;2022-12-18T13:59:09;26.33;;;19.93;;
13445;SDS011;6795;51.232;3.764;2022-12-18T14:01:51;26.23;;;19.03;;
13445;SDS011;6795;51.232;3.764;2022-12-18T14:04:22;28.43;;;20.00;;
13445;SDS011;6795;51.232;3.764;2022-12-18T14:06:56;29.70;;;20.30;;
13445;SDS011;6795;51.232;3.764;2022-12-18T14:09:31;30.83;;;20.67;;
13445;SDS011;6795;51.232;3.764;2022-12-18T14:12:06;26.57;;;19.30;;
13445;SDS011;6795;51.232;3.764;2022-12-18T14:15:02;33.83;;;23.00;;
13445;SDS011;6795;51.232;3.764;2022-12-18T14:17:31;30.47;;;21.43;;
13445;SDS011;6795;51.232;3.764;2022-12-18T14:20:00;34.00;;;22.30;;
13445;SDS011;6795;51.232;3.764;2022-12-18T14:22:29;28.90;;;20.53;;
13445;SDS011;6795;51.232;3.764;2022-12-18T14:25:13;30.07;;;21.77;;
13445;SDS011;6795;51.232;3.764;2022-12-18T14:27:44;30.57;;;22.23;;
13445;SDS011;6795;51.232;3.764;2022-12-18T14:30:26;29.00;;;21.30;;
13445;SDS011;6795;51.232;3.764;2022-12-18T14:32:59;28.47;;;19.33;;
13445;SDS011;6795;51.232;3.764;2022-12-18T14:35:32;31.93;;;21.17;;
13445;SDS011;6795;51.232;3.764;2022-12-18T14:38:09;32.33;;;21.63;;
13445;SDS011;6795;51.232;3.764;2022-12-18T14:40:46;29.67;;;21.50;;
13445;SDS011;6795;51.232;3.764;2022-12-18T14:43:15;31.87;;;21.93;;
13445;SDS011;6795;51.232;3.764;2022-12-18T14:45:45;35.00;;;22.23;;
13445;SDS011;6795;51.232;3.764;2022-12-18T14:48:15;34.30;;;22.00;;
13445;SDS011;6795;51.232;3.764;2022-12-18T14:50:55;32.17;;;21.37;;
13445;SDS011;6795;51.232;3.764;2022-12-18T14:53:30;33.97;;;21.77;;
13445;SDS011;6795;51.232;3.764;2022-12-18T14:56:12;33.70;;;22.10;;
13445;SDS011;6795;51.232;3.764;2022-12-18T14:58:44;35.73;;;23.30;;
13445;SDS011;6795;51.232;3.764;2022-12-18T15:01:20;33.60;;;22.50;;
13445;SDS011;6795;51.232;3.764;2022-12-18T15:03:52;36.07;;;23.33;;
13445;SDS011;6795;51.232;3.764;2022-12-18T15:06:26;33.93;;;21.87;;
13445;SDS011;6795;51.232;3.764;2022-12-18T15:08:56;32.83;;;22.10;;
13445;SDS011;6795;51.232;3.764;2022-12-18T15:11:27;33.07;;;22.37;;